EDDGEHBK

Guest
Details From EDDG - Muenster Osnabrueck
To EHBK - Maastricht
Flight Number -
Tags Generated
Created
Modified
Stats Distance 103 nm / 190 km
Max Altitude 0 ft / 0 m
Waypoints 2
Social Downloads 0
Likes 0
Share VATSIM

Download

Looking for another format? Having issues loading an existing format? Contact us
Advertisement - Login to hide

Notes

Generated

Route

EDDG EHBK

ID Type Via Altitude Latitude Longitude Leg Dist Tot Dist Heading (true) Name
O EDDG APT - 0 ft / 0 m 52.13151˚ 7.67006˚ - 0 nm - -
O EHBK APT - 0 ft / 0 m 50.90184˚ 5.76005˚ 102 nm 102 nm 225° / 223° -

Altitude Profile

Advertisement - Login to hide

EDDG

Details ICAO EDDG (FMO)
Name Muenster Osnabrueck
Region Germany - Civil
Timezone Europe/Berlin (UTC+2.0)
Stats Elevation 159 ft / 48 m (AMSL)
Location 52.134580° 7.684669°
Runways 1
Magnetic Variation 2.129° E

METAR

EDDG 222120Z 02005KT 340V040 9999 -SHRA FEW050TCU BKN070 17/12 Q1016 NOSIG

Decode

TAF

TAF TAF EDDG 221700Z 2218/2318 VRB03KT 9999 SCT025 PROB30 TEMPO 2218/2222 16008KT TSRA BKN020CB BECMG 2306/2309 05010KT

Decode

Departure Runways

ID Width Length Bearing (true) Bearing (mag) Surface Threshold Offset Overrun Length
07 148 ft / 45 m 7,303 ft / 2,226 m 70.93° 68.80° Asphalt 151 ft / 46 m 0 ft / 0 m
25 148 ft / 45 m 7,303 ft / 2,226 m 250.96° 248.83° Asphalt 292 ft / 89 m 0 ft / 0 m

EHBK

Details ICAO EHBK (MST)
Name Maastricht
Region Netherlands
Timezone Europe/Amsterdam (UTC+2.0)
Stats Elevation 375 ft / 114 m (AMSL)
Location 50.911305° 5.769639°
Runways 1
Magnetic Variation 1.575° E

METAR

EHBK 222125Z AUTO 06005KT 7000 NSC 15/14 Q1015

Decode

TAF

TAF EHBK 221720Z 2218/2324 VRB03KT CAVOK PROB40 2218/2221 4000 BR BECMG 2221/2224 4000 BR PROB40 2300/2306 1200 BKN003 PROB40 TEMPO 2304/2313 4000 RA SHRA SCT060CB BECMG 2306/2309 07010KT 9999 NSW SCT030

Decode

Destination Runways

ID Width Length Bearing (true) Bearing (mag) Surface Threshold Offset Overrun Length
03 148 ft / 45 m 8,200 ft / 2,499 m 32.55° 30.97° Asphalt 820 ft / 250 m 0 ft / 0 m
21 148 ft / 45 m 8,200 ft / 2,499 m 212.56° 210.98° Asphalt 820 ft / 250 m 0 ft / 0 m

Approach Navaids

Runway Type Ident Frequency Range Bearing (true) Bearing (mag) Slope Elevation
03 Localiser BKZ 111.55 MHz 18 nm / 33 km 32.57° 30.99° - 375 ft / 114 m (AMSL)
03 Glidescope BKZ 111.55 MHz 15 nm / 28 km 32.57° 30.99° 3.00° 375 ft / 114 m (AMSL)
03 DME BKZ 111.55 MHz 18 nm / 33 km - - - 375 ft / 114 m (AMSL)
21 Localiser BKN 111.55 MHz 18 nm / 33 km 212.55° 210.97° - 375 ft / 114 m (AMSL)
21 Glidescope BKN 111.55 MHz 15 nm / 28 km 212.55° 210.97° 3.00° 375 ft / 114 m (AMSL)
21 DME BKN 111.55 MHz 18 nm / 33 km - - - 375 ft / 114 m (AMSL)